createdAt,value
2018-12-25T00:01:32.658Z,20.10
2018-12-25T00:04:01.882Z,20.10
2018-12-25T00:06:31.134Z,20.10
2018-12-25T00:09:01.571Z,20.10
2018-12-25T00:11:30.801Z,20.10
2018-12-25T00:13:59.931Z,20.10
2018-12-25T00:16:29.178Z,20.10
2018-12-25T00:19:05.949Z,20.10
2018-12-25T00:21:29.250Z,20.10
2018-12-25T00:23:58.535Z,20.20
2018-12-25T00:26:27.789Z,20.10
2018-12-25T00:28:57.017Z,20.10
2018-12-25T00:31:26.252Z,20.10
2018-12-25T00:33:55.513Z,20.10
2018-12-25T00:36:24.753Z,20.10
2018-12-25T00:38:54.332Z,20.10
2018-12-25T00:41:23.533Z,20.10
2018-12-25T00:43:52.781Z,20.10
2018-12-25T00:46:22.016Z,20.10
2018-12-25T00:48:51.196Z,20.10
2018-12-25T00:51:20.413Z,20.10
2018-12-25T00:53:49.621Z,20.10
2018-12-25T00:56:18.842Z,20.10
2018-12-25T00:58:48.012Z,20.10
2018-12-25T01:01:17.251Z,20.10
2018-12-25T01:03:46.421Z,20.10
2018-12-25T01:06:15.749Z,20.10
2018-12-25T01:08:44.954Z,20.10
2018-12-25T01:11:14.155Z,20.10
2018-12-25T01:13:43.385Z,20.10
2018-12-25T01:16:12.611Z,20.10
2018-12-25T01:18:41.918Z,20.10
2018-12-25T01:21:11.117Z,20.10
2018-12-25T01:23:40.703Z,20.10
2018-12-25T01:26:09.961Z,20.10
2018-12-25T01:28:39.177Z,20.10
2018-12-25T01:31:08.422Z,20.10
2018-12-25T01:33:37.690Z,20.10
2018-12-25T01:36:06.889Z,20.10
2018-12-25T01:38:36.030Z,20.10
2018-12-25T01:41:05.213Z,20.10
2018-12-25T01:43:34.423Z,20.10
2018-12-25T01:46:03.650Z,20.10
2018-12-25T01:48:32.870Z,20.10
2018-12-25T01:51:02.078Z,20.10
2018-12-25T01:53:31.337Z,20.10
2018-12-25T01:56:00.531Z,20.10
2018-12-25T01:58:29.769Z,20.10
2018-12-25T02:00:58.992Z,20.10
2018-12-25T02:03:28.178Z,20.10
2018-12-25T02:05:57.408Z,20.10
2018-12-25T02:08:26.629Z,20.10
2018-12-25T02:10:55.814Z,20.10
2018-12-25T02:13:24.965Z,20.10
2018-12-25T02:15:54.175Z,20.10
2018-12-25T02:18:23.391Z,20.10
2018-12-25T02:20:52.613Z,20.10
2018-12-25T02:23:21.822Z,20.10
2018-12-25T02:25:50.967Z,20.10
2018-12-25T02:28:20.241Z,20.10
2018-12-25T02:30:49.454Z,20.10
2018-12-25T02:33:18.655Z,20.10
2018-12-25T02:35:47.879Z,20.10
2018-12-25T02:38:17.136Z,20.10
2018-12-25T02:40:46.835Z,20.10
2018-12-25T02:43:16.026Z,20.10
2018-12-25T02:45:45.399Z,20.10
2018-12-25T02:48:14.585Z,20.10
2018-12-25T02:50:43.762Z,20.10
2018-12-25T02:53:12.986Z,20.10
2018-12-25T02:55:42.178Z,20.10
2018-12-25T02:58:11.376Z,20.10
2018-12-25T03:00:40.615Z,20.10
2018-12-25T03:03:09.808Z,20.10
2018-12-25T03:05:39.028Z,20.10
2018-12-25T03:08:08.285Z,20.10
2018-12-25T03:10:37.515Z,20.10
2018-12-25T03:13:06.638Z,20.10
2018-12-25T03:15:35.855Z,20.10
2018-12-25T03:18:05.085Z,20.10
2018-12-25T03:20:34.266Z,20.10
2018-12-25T03:23:03.482Z,20.10
2018-12-25T03:25:32.698Z,20.10
2018-12-25T03:28:01.938Z,20.10
2018-12-25T03:30:31.156Z,20.10
2018-12-25T03:33:00.397Z,20.10
2018-12-25T03:35:29.640Z,20.10
2018-12-25T03:37:58.809Z,20.10
2018-12-25T03:40:27.957Z,20.10
2018-12-25T03:42:57.191Z,20.10
2018-12-25T03:45:26.401Z,20.10
2018-12-25T03:47:55.600Z,20.10
2018-12-25T03:50:24.850Z,20.10
2018-12-25T03:52:54.044Z,20.10
2018-12-25T03:55:23.259Z,20.10
2018-12-25T03:57:52.469Z,20.10
2018-12-25T04:00:21.612Z,20.10
2018-12-25T04:02:50.843Z,20.10
2018-12-25T04:05:19.972Z,20.10
2018-12-25T04:07:49.185Z,20.10
2018-12-25T04:10:18.410Z,20.10
2018-12-25T04:12:47.547Z,20.10
2018-12-25T04:15:16.778Z,20.10
2018-12-25T04:17:46.288Z,20.10
2018-12-25T04:20:19.655Z,20.10
2018-12-25T04:22:46.358Z,20.10
2018-12-25T04:25:15.590Z,20.10
2018-12-25T04:27:44.792Z,20.10
2018-12-25T04:30:14.045Z,20.20
2018-12-25T04:32:43.289Z,20.20
2018-12-25T04:35:12.503Z,20.20
2018-12-25T04:37:41.727Z,20.20
2018-12-25T04:40:11.230Z,20.20
2018-12-25T04:42:40.425Z,20.20
2018-12-25T04:45:09.546Z,20.20
2018-12-25T04:47:38.751Z,20.20
2018-12-25T04:50:08.001Z,20.20
2018-12-25T04:52:37.208Z,20.20
2018-12-25T04:55:06.490Z,20.20
2018-12-25T04:57:35.715Z,20.20
2018-12-25T05:00:05.349Z,20.20
2018-12-25T05:02:34.575Z,20.20
2018-12-25T05:05:03.798Z,20.10
2018-12-25T05:07:33.003Z,20.10
2018-12-25T05:10:02.183Z,20.10
2018-12-25T05:12:31.399Z,20.20
2018-12-25T05:15:00.671Z,20.20
2018-12-25T05:17:29.935Z,20.20
2018-12-25T05:19:59.125Z,20.20
2018-12-25T05:22:28.360Z,20.20
2018-12-25T05:24:57.633Z,20.20
2018-12-25T05:27:26.830Z,20.20
2018-12-25T05:29:56.071Z,20.20
2018-12-25T05:32:25.322Z,20.20
2018-12-25T05:34:54.538Z,20.20
2018-12-25T05:37:23.782Z,20.20
2018-12-25T05:39:53.340Z,20.20
2018-12-25T05:42:22.526Z,20.20
2018-12-25T05:44:51.774Z,20.20
2018-12-25T05:47:20.996Z,20.20
2018-12-25T05:49:50.470Z,20.20
2018-12-25T05:52:19.617Z,20.20
2018-12-25T05:54:48.803Z,20.20
2018-12-25T05:57:18.058Z,20.20
2018-12-25T05:59:47.293Z,20.20
2018-12-25T06:02:16.510Z,20.20
2018-12-25T06:04:45.661Z,20.30
2018-12-25T06:07:14.905Z,20.20
2018-12-25T06:09:44.082Z,20.20
2018-12-25T06:12:13.294Z,20.20
2018-12-25T06:14:42.522Z,20.20
2018-12-25T06:17:11.798Z,20.20
2018-12-25T06:19:40.981Z,20.20
2018-12-25T06:22:10.150Z,20.20
2018-12-25T06:24:39.385Z,20.20
2018-12-25T06:27:08.589Z,20.20
2018-12-25T06:29:37.855Z,20.20
2018-12-25T06:32:07.076Z,20.20
2018-12-25T06:34:36.310Z,20.20
2018-12-25T06:37:05.537Z,20.20
2018-12-25T06:39:34.754Z,20.20
2018-12-25T06:42:04.003Z,20.20
2018-12-25T06:44:33.176Z,20.20
2018-12-25T06:47:02.401Z,20.20
2018-12-25T06:49:31.610Z,20.20
2018-12-25T06:52:00.828Z,20.20
2018-12-25T06:54:30.012Z,20.20
2018-12-25T06:56:59.307Z,20.20
2018-12-25T06:59:28.517Z,20.20
2018-12-25T07:01:57.734Z,20.20
2018-12-25T07:04:26.979Z,20.20
2018-12-25T07:06:56.174Z,20.20
2018-12-25T07:09:25.423Z,20.20
2018-12-25T07:11:54.663Z,20.20
2018-12-25T07:14:23.885Z,20.20
2018-12-25T07:16:53.097Z,20.30
2018-12-25T07:19:22.735Z,20.30
2018-12-25T07:21:51.982Z,20.30
2018-12-25T07:24:21.219Z,20.30
2018-12-25T07:26:50.443Z,20.30
2018-12-25T07:29:19.688Z,20.20
2018-12-25T07:31:48.986Z,20.30
2018-12-25T07:34:18.146Z,20.30
2018-12-25T07:36:47.418Z,20.20
2018-12-25T07:39:16.626Z,20.20
2018-12-25T07:41:45.817Z,20.20
2018-12-25T07:44:15.041Z,20.20
2018-12-25T07:46:44.299Z,20.10
2018-12-25T07:49:13.532Z,20.10
2018-12-25T07:51:42.794Z,20.10
2018-12-25T07:54:11.990Z,20.10
2018-12-25T07:56:41.198Z,20.10
2018-12-25T07:59:10.410Z,20.10
2018-12-25T08:01:39.638Z,20.10
2018-12-25T08:04:09.030Z,20.10
2018-12-25T08:06:38.470Z,20.10
2018-12-25T08:09:08.329Z,20.10
2018-12-25T08:11:38.035Z,20.10
2018-12-25T08:14:07.425Z,20.20
2018-12-25T08:16:36.953Z,20.20
2018-12-25T08:19:06.571Z,20.20
2018-12-25T08:21:36.797Z,20.20
2018-12-25T08:24:06.696Z,20.20
2018-12-25T08:26:37.353Z,20.20
2018-12-25T08:29:06.541Z,20.20
2018-12-25T08:31:35.762Z,20.20
2018-12-25T08:34:04.930Z,20.20
2018-12-25T08:36:34.146Z,20.20
2018-12-25T08:39:04.632Z,20.20
2018-12-25T08:41:34.201Z,20.20
2018-12-25T08:44:03.390Z,20.20
2018-12-25T08:46:32.494Z,20.20
2018-12-25T08:49:01.759Z,20.20
2018-12-25T08:51:37.642Z,20.20
2018-12-25T08:54:01.852Z,20.20
2018-12-25T08:56:31.096Z,20.20
2018-12-25T08:59:00.560Z,20.20
2018-12-25T09:01:29.757Z,20.20
2018-12-25T09:03:58.985Z,20.20
2018-12-25T09:06:28.122Z,20.20
2018-12-25T09:08:57.258Z,20.20
2018-12-25T09:11:26.507Z,20.10
2018-12-25T09:13:55.724Z,20.10
2018-12-25T09:16:24.909Z,20.10
2018-12-25T09:18:54.135Z,20.10
2018-12-25T09:21:23.357Z,20.10
2018-12-25T09:23:52.583Z,20.00
2018-12-25T09:26:21.778Z,20.00
2018-12-25T09:28:51.001Z,20.00
2018-12-25T09:31:20.222Z,20.10
2018-12-25T09:33:49.406Z,20.10
2018-12-25T09:36:18.694Z,20.20
2018-12-25T09:38:47.882Z,20.20
2018-12-25T09:41:17.042Z,20.30
2018-12-25T09:43:46.234Z,20.40
2018-12-25T09:46:16.067Z,20.50
2018-12-25T09:48:45.315Z,20.50
2018-12-25T09:51:14.502Z,20.50
2018-12-25T09:53:43.817Z,20.60
2018-12-25T09:56:12.997Z,20.60
2018-12-25T09:58:42.226Z,20.70
2018-12-25T10:01:11.450Z,20.60
2018-12-25T10:03:40.678Z,20.60
2018-12-25T10:06:09.862Z,20.60
2018-12-25T10:08:39.109Z,20.60
2018-12-25T10:11:08.306Z,20.50
2018-12-25T10:13:37.542Z,20.50
2018-12-25T10:16:06.784Z,20.50
2018-12-25T10:18:35.969Z,20.50
2018-12-25T10:21:05.196Z,20.40
2018-12-25T10:23:34.416Z,20.50
2018-12-25T10:26:03.627Z,20.50
2018-12-25T10:28:32.853Z,20.50
2018-12-25T10:31:02.050Z,20.50
2018-12-25T10:33:31.302Z,20.60
2018-12-25T10:36:00.539Z,20.70
2018-12-25T10:38:29.766Z,20.70
2018-12-25T10:40:59.001Z,20.70
2018-12-25T10:43:28.247Z,20.70
2018-12-25T10:45:57.462Z,20.70
2018-12-25T10:48:26.673Z,20.70
2018-12-25T10:50:55.909Z,20.70
2018-12-25T10:53:25.145Z,20.60
2018-12-25T10:55:54.340Z,20.60
2018-12-25T10:58:23.584Z,20.60
2018-12-25T11:00:57.085Z,20.50
2018-12-25T11:03:26.286Z,20.50
2018-12-25T11:05:55.542Z,20.50
2018-12-25T11:08:24.787Z,20.50
2018-12-25T11:10:53.975Z,20.60
2018-12-25T11:13:23.310Z,20.60
2018-12-25T11:15:52.513Z,20.70
2018-12-25T11:18:21.742Z,20.70
2018-12-25T11:20:50.893Z,20.70
2018-12-25T11:23:20.098Z,20.70
2018-12-25T11:25:49.367Z,20.70
2018-12-25T11:28:18.583Z,20.70
2018-12-25T11:30:47.993Z,20.70
2018-12-25T11:33:17.271Z,20.70
2018-12-25T11:35:47.133Z,20.70
2018-12-25T11:38:16.360Z,20.70
2018-12-25T11:40:45.599Z,20.70
2018-12-25T11:43:14.897Z,20.60
2018-12-25T11:45:44.134Z,20.60
2018-12-25T11:48:13.363Z,20.50
2018-12-25T11:50:42.590Z,20.50
2018-12-25T11:53:11.875Z,20.50
2018-12-25T11:55:41.101Z,20.40
2018-12-25T11:58:12.041Z,20.40
2018-12-25T12:00:41.173Z,20.40
2018-12-25T12:03:10.413Z,20.40
2018-12-25T12:05:39.619Z,20.40
2018-12-25T12:08:08.853Z,20.40
2018-12-25T12:10:38.126Z,20.40
2018-12-25T12:13:07.326Z,20.40
2018-12-25T12:15:36.534Z,20.40
2018-12-25T12:18:05.753Z,20.40
2018-12-25T12:20:34.962Z,20.40
2018-12-25T12:23:04.211Z,20.40
2018-12-25T12:25:33.467Z,20.40
2018-12-25T12:28:02.629Z,20.40
2018-12-25T12:30:32.159Z,20.40
2018-12-25T12:33:01.394Z,20.40
2018-12-25T12:35:30.613Z,20.30
2018-12-25T12:37:59.851Z,20.30
2018-12-25T12:40:29.110Z,20.30
2018-12-25T12:42:58.334Z,20.30
2018-12-25T12:45:27.538Z,20.30
2018-12-25T12:47:56.797Z,20.30
2018-12-25T12:50:25.991Z,20.40
2018-12-25T12:52:55.229Z,20.30
2018-12-25T12:55:24.435Z,20.30
2018-12-25T12:57:53.668Z,20.30
2018-12-25T13:00:22.884Z,20.30
2018-12-25T13:02:52.167Z,20.30
2018-12-25T13:05:21.415Z,20.30
2018-12-25T13:07:50.673Z,20.30
2018-12-25T13:10:19.941Z,20.30
2018-12-25T13:12:49.098Z,20.30
2018-12-25T13:15:18.530Z,20.30
2018-12-25T13:17:47.702Z,20.30
2018-12-25T13:20:16.998Z,20.30
2018-12-25T13:22:53.889Z,20.30
2018-12-25T13:25:17.154Z,20.30
2018-12-25T13:27:46.423Z,20.30
2018-12-25T13:30:15.623Z,20.30
2018-12-25T13:32:44.972Z,20.30
2018-12-25T13:35:14.253Z,20.30
2018-12-25T13:37:43.536Z,20.30
2018-12-25T13:40:12.744Z,20.30
2018-12-25T13:42:41.967Z,20.30
2018-12-25T13:45:11.194Z,20.30
2018-12-25T13:47:40.411Z,20.30
2018-12-25T13:50:10.186Z,20.30
2018-12-25T13:52:40.056Z,20.30
2018-12-25T13:55:09.299Z,20.30
2018-12-25T13:57:38.578Z,20.30
2018-12-25T14:00:07.861Z,20.30
2018-12-25T14:02:37.539Z,20.30
2018-12-25T14:05:06.849Z,20.30
2018-12-25T14:07:36.085Z,20.40
2018-12-25T14:10:06.403Z,20.50
2018-12-25T14:12:35.744Z,20.60
2018-12-25T14:15:05.405Z,20.60
2018-12-25T14:17:34.651Z,20.60
2018-12-25T14:20:03.874Z,20.50
2018-12-25T14:22:33.069Z,20.50
2018-12-25T14:25:02.279Z,20.50
2018-12-25T14:27:31.530Z,20.50
2018-12-25T14:30:00.762Z,20.50
2018-12-25T14:32:30.049Z,20.50
2018-12-25T14:34:59.387Z,20.40
2018-12-25T14:37:28.643Z,20.40
2018-12-25T14:39:57.897Z,20.40
2018-12-25T14:42:27.117Z,20.40
2018-12-25T14:44:56.414Z,20.40
2018-12-25T14:47:25.625Z,20.30
2018-12-25T14:49:54.821Z,20.30
2018-12-25T14:52:24.061Z,20.30
2018-12-25T14:54:53.829Z,20.30
2018-12-25T14:57:24.646Z,20.30
2018-12-25T14:59:53.934Z,20.30
2018-12-25T15:02:23.144Z,20.30
2018-12-25T15:04:52.438Z,20.30
2018-12-25T15:07:21.667Z,20.30
2018-12-25T15:09:50.971Z,20.30
2018-12-25T15:12:20.209Z,20.30
2018-12-25T15:14:49.428Z,20.30
2018-12-25T15:17:18.614Z,20.30
2018-12-25T15:19:47.929Z,20.30
2018-12-25T15:22:17.136Z,20.30
2018-12-25T15:24:46.318Z,20.30
2018-12-25T15:27:15.566Z,20.30
2018-12-25T15:29:44.781Z,20.30
2018-12-25T15:32:14.038Z,20.30
2018-12-25T15:34:43.242Z,20.40
2018-12-25T15:37:12.558Z,20.40
2018-12-25T15:39:41.853Z,20.50
2018-12-25T15:42:11.091Z,20.50
2018-12-25T15:44:40.294Z,20.50
2018-12-25T15:47:09.509Z,20.50
2018-12-25T15:49:38.726Z,20.50
2018-12-25T15:52:08.478Z,20.50
2018-12-25T15:54:37.690Z,20.40
2018-12-25T15:57:09.329Z,20.40
2018-12-25T15:59:38.573Z,20.40
2018-12-25T16:02:08.870Z,20.40
2018-12-25T16:04:38.097Z,20.40
2018-12-25T16:07:07.247Z,20.40
2018-12-25T16:09:36.503Z,20.40
2018-12-25T16:12:05.765Z,20.40
2018-12-25T16:14:34.974Z,20.40
2018-12-25T16:17:04.160Z,20.40
2018-12-25T16:19:33.407Z,20.40
2018-12-25T16:22:02.599Z,20.40
2018-12-25T16:24:31.735Z,20.30
2018-12-25T16:27:00.986Z,20.30
2018-12-25T16:29:30.177Z,20.30
2018-12-25T16:31:59.399Z,20.20
2018-12-25T16:34:28.879Z,20.30
2018-12-25T16:36:58.110Z,20.30
2018-12-25T16:39:27.366Z,20.30
2018-12-25T16:41:56.562Z,20.30
2018-12-25T16:44:25.745Z,20.30
2018-12-25T16:46:54.914Z,20.30
2018-12-25T16:49:24.130Z,20.30
2018-12-25T16:51:53.385Z,20.30
2018-12-25T16:54:22.626Z,20.30
2018-12-25T16:56:51.875Z,20.30
2018-12-25T16:59:21.093Z,20.30
2018-12-25T17:01:50.281Z,20.30
2018-12-25T17:04:19.510Z,20.30
2018-12-25T17:06:48.741Z,20.30
2018-12-25T17:09:17.950Z,20.30
2018-12-25T17:11:47.133Z,20.30
2018-12-25T17:14:16.337Z,20.30
2018-12-25T17:16:46.444Z,20.30
2018-12-25T17:19:15.713Z,20.40
2018-12-25T17:21:44.900Z,20.40
2018-12-25T17:24:14.127Z,20.40
2018-12-25T17:26:43.410Z,20.40
2018-12-25T17:29:12.994Z,20.40
2018-12-25T17:31:42.213Z,20.40
2018-12-25T17:34:11.455Z,20.40
2018-12-25T17:36:41.036Z,20.40
2018-12-25T17:39:10.323Z,20.40
2018-12-25T17:41:39.545Z,20.40
2018-12-25T17:44:08.761Z,20.40
2018-12-25T17:46:38.009Z,20.40
2018-12-25T17:49:07.266Z,20.40
2018-12-25T17:51:36.422Z,20.40
2018-12-25T17:54:10.756Z,20.40
2018-12-25T17:56:37.987Z,20.40
2018-12-25T17:59:07.394Z,20.40
2018-12-25T18:01:36.888Z,20.40
2018-12-25T18:04:06.118Z,20.40
2018-12-25T18:06:35.331Z,20.40
2018-12-25T18:09:05.721Z,20.40
2018-12-25T18:11:34.958Z,20.40
2018-12-25T18:14:04.198Z,20.40
2018-12-25T18:16:33.336Z,20.40
2018-12-25T18:19:02.642Z,20.40
2018-12-25T18:21:31.786Z,20.30
2018-12-25T18:24:01.062Z,20.40
2018-12-25T18:26:30.273Z,20.40
2018-12-25T18:28:59.424Z,20.40
2018-12-25T18:31:28.687Z,20.40
2018-12-25T18:33:57.898Z,20.40
2018-12-25T18:36:27.099Z,20.40
2018-12-25T18:38:56.381Z,20.40
2018-12-25T18:41:25.657Z,20.40
2018-12-25T18:43:54.860Z,20.40
2018-12-25T18:46:24.097Z,20.40
2018-12-25T18:48:53.298Z,20.40
2018-12-25T18:51:22.465Z,20.40
2018-12-25T18:53:51.746Z,20.40
2018-12-25T18:56:20.982Z,20.40
2018-12-25T18:58:50.174Z,20.40
2018-12-25T19:01:19.438Z,20.40
2018-12-25T19:03:48.694Z,20.40
2018-12-25T19:06:17.901Z,20.40
2018-12-25T19:08:47.147Z,20.40
2018-12-25T19:11:16.350Z,20.40
2018-12-25T19:13:45.532Z,20.40
2018-12-25T19:16:14.797Z,20.40
2018-12-25T19:18:44.006Z,20.40
2018-12-25T19:21:13.145Z,20.40
2018-12-25T19:23:58.640Z,20.40
2018-12-25T19:26:27.831Z,20.40
2018-12-25T19:28:57.074Z,20.40
2018-12-25T19:31:26.694Z,20.40
2018-12-25T19:33:55.816Z,20.40
2018-12-25T19:36:25.038Z,20.40
2018-12-25T19:38:54.306Z,20.40
2018-12-25T19:41:23.525Z,20.40
2018-12-25T19:43:52.740Z,20.40
2018-12-25T19:46:21.985Z,20.40
2018-12-25T19:48:51.242Z,20.40
2018-12-25T19:51:20.454Z,20.40
2018-12-25T19:53:49.674Z,20.40
2018-12-25T19:56:18.890Z,20.40
2018-12-25T19:58:48.074Z,20.40
2018-12-25T20:01:17.237Z,20.40
2018-12-25T20:04:25.665Z,20.40
2018-12-25T20:07:31.893Z,20.40
2018-12-25T20:10:20.616Z,20.40
2018-12-25T20:13:25.917Z,20.40
2018-12-25T20:16:37.581Z,20.40
2018-12-25T20:19:36.149Z,20.40
2018-12-25T20:22:52.454Z,20.30
2018-12-25T20:25:47.926Z,20.30
2018-12-25T20:28:27.525Z,20.30
2018-12-25T20:31:33.855Z,20.30
2018-12-25T20:34:28.537Z,20.30
2018-12-25T20:37:28.401Z,20.30
2018-12-25T20:40:31.589Z,20.30
2018-12-25T20:43:52.968Z,20.30
2018-12-25T20:47:02.375Z,20.30
2018-12-25T20:50:14.458Z,20.40
2018-12-25T20:53:18.475Z,20.40
2018-12-25T20:56:46.946Z,20.40
2018-12-25T20:59:42.539Z,20.40
2018-12-25T21:03:08.620Z,20.40
2018-12-25T21:06:05.855Z,20.50
2018-12-25T21:09:13.565Z,20.50
2018-12-25T21:12:21.162Z,20.60
2018-12-25T21:15:22.759Z,20.60
2018-12-25T21:18:29.117Z,20.60
2018-12-25T21:21:53.652Z,20.60
2018-12-25T21:24:58.680Z,20.60
2018-12-25T21:27:33.201Z,20.60
2018-12-25T21:30:07.380Z,20.60
2018-12-25T21:32:43.946Z,20.60
2018-12-25T21:35:24.387Z,20.60
2018-12-25T21:37:54.456Z,20.60
2018-12-25T21:40:23.793Z,20.60
2018-12-25T21:42:57.381Z,20.60
2018-12-25T21:45:26.651Z,20.60
2018-12-25T21:47:55.850Z,20.60
2018-12-25T21:50:25.054Z,20.50
2018-12-25T21:52:54.802Z,20.50
2018-12-25T21:55:24.009Z,20.40
2018-12-25T21:57:53.246Z,20.40
2018-12-25T22:00:24.190Z,20.40
2018-12-25T22:02:53.450Z,20.40
2018-12-25T22:05:22.678Z,20.40
2018-12-25T22:07:51.942Z,20.40
2018-12-25T22:10:21.167Z,20.40
2018-12-25T22:12:50.427Z,20.40
2018-12-25T22:15:19.735Z,20.40
2018-12-25T22:17:49.051Z,20.40
2018-12-25T22:20:31.414Z,20.40
2018-12-25T22:23:00.654Z,20.40
2018-12-25T22:25:30.242Z,20.40
2018-12-25T22:27:59.483Z,20.40
2018-12-25T22:30:28.682Z,20.40
2018-12-25T22:32:57.898Z,20.40
2018-12-25T22:35:27.158Z,20.40
2018-12-25T22:37:56.409Z,20.40
2018-12-25T22:40:25.631Z,20.40
2018-12-25T22:42:54.879Z,20.40
2018-12-25T22:45:24.418Z,20.40
2018-12-25T22:47:53.626Z,20.40
2018-12-25T22:50:22.825Z,20.40
2018-12-25T22:52:52.069Z,20.40
2018-12-25T22:55:21.260Z,20.40
2018-12-25T22:57:50.494Z,20.40
2018-12-25T23:00:20.136Z,20.40
2018-12-25T23:02:49.401Z,20.40
2018-12-25T23:05:18.649Z,20.40
2018-12-25T23:07:47.915Z,20.40
2018-12-25T23:10:17.159Z,20.40
2018-12-25T23:12:46.454Z,20.40
2018-12-25T23:15:15.706Z,20.40
2018-12-25T23:17:44.930Z,20.40
2018-12-25T23:20:14.249Z,20.40
2018-12-25T23:22:43.495Z,20.40
2018-12-25T23:25:12.702Z,20.40
2018-12-25T23:27:41.943Z,20.40
2018-12-25T23:30:11.133Z,20.40
2018-12-25T23:32:40.397Z,20.40
2018-12-25T23:35:09.719Z,20.40
2018-12-25T23:37:39.144Z,20.40
2018-12-25T23:40:10.410Z,20.30
2018-12-25T23:42:39.731Z,20.30
2018-12-25T23:45:09.034Z,20.30
2018-12-25T23:47:38.285Z,20.30
2018-12-25T23:50:07.515Z,20.30
2018-12-25T23:52:36.788Z,20.30
2018-12-25T23:55:06.022Z,20.30
2018-12-25T23:57:35.311Z,20.30
